Station Historical Data
Daily Summary for January 9, 2017 Units:  Metric    English   Both
« Previous Day
Next Day »
Daily Weekly Monthly Yearly Custom
  High: Low: Average:
Temperature: 9.7 °C 5.3 °C 6.4 °C
Dew Point: 9.2 °C 4.7 °C 5.8 °C
Humidity: 97 % 96 % 96 %
Wind Speed: 41.8 km/h 0 km/h 13.2 km/h
Wind Gust: 48.3 km/h - -
Wind:- - SSW
Pressure: 1019.9 hPa 1012.4 hPa -
Precipitation: 0 mm    
Historical Graphs
 
 
Tabular Data for January 9, 2017
Time Temperature Dew Point Pressure Wind Wind Speed Wind Gust Humidity Rainfall Rate (Hourly) solar
00:02 9.7 °C 9.2 °C 1013.4 hPa SW 16.1 km/h 24.1 km/h 97 % 0 mm 0.00 W/m2
00:07 9.6 °C 9.2 °C 1013.4 hPa SW 12.9 km/h 27.4 km/h 97 % 0 mm 0.00 W/m2
00:12 9.6 °C 8.9 °C 1013.4 hPa WSW 17.7 km/h 17.7 km/h 96 % 0 mm 0.00 W/m2
00:17 9.5 °C 9.1 °C 1013.4 hPa SW 27.4 km/h 27.4 km/h 97 % 0 mm 0.00 W/m2
00:22 9.5 °C 9.1 °C 1013.4 hPa SW 19.3 km/h 27.4 km/h 97 % 0 mm 0.00 W/m2
00:27 9.5 °C 9.1 °C 1013.4 hPa SW 19.3 km/h 19.3 km/h 97 % 0 mm 0.00 W/m2
00:32 9.5 °C 9.1 °C 1013.4 hPa South 12.9 km/h 17.7 km/h 97 % 0 mm 0.00 W/m2
00:37 9.5 °C 9.1 °C 1013.4 hPa SW 25.7 km/h 25.7 km/h 97 % 0 mm 0.00 W/m2
00:42 9.5 °C 9.1 °C 1013.4 hPa South 25.7 km/h 33.8 km/h 97 % 0 mm 0.00 W/m2
00:47 9.5 °C 9.1 °C 1013.4 hPa SW 22.5 km/h 27.4 km/h 97 % 0 mm 0.00 W/m2
00:52 9.4 °C 9 °C 1013.4 hPa SSE 12.9 km/h 24.1 km/h 97 % 0 mm 0.00 W/m2
00:57 9.4 °C 9 °C 1013.1 hPa SW 19.3 km/h 29 km/h 97 % 0 mm 0.00 W/m2
01:02 9.4 °C 8.9 °C 1013.1 hPa South 9.7 km/h 17.7 km/h 97 % 0 mm 0.00 W/m2
01:07 9.4 °C 8.9 °C 1013.1 hPa SW 8 km/h 30.6 km/h 97 % 0 mm 0.00 W/m2
01:12 9.3 °C 8.9 °C 1012.8 hPa South 14.5 km/h 20.9 km/h 97 % 0 mm 0.00 W/m2
01:17 9.3 °C 8.9 °C 1012.8 hPa South 12.9 km/h 32.2 km/h 97 % 0 mm 0.00 W/m2
01:22 9.3 °C 8.8 °C 1012.8 hPa SSW 14.5 km/h 25.7 km/h 97 % 1.02 mm 0.00 W/m2
01:27 9.3 °C 8.8 °C 1012.8 hPa South 16.1 km/h 33.8 km/h 97 % 1.02 mm 0.00 W/m2
01:32 9.3 °C 8.8 °C 1012.4 hPa SSE 22.5 km/h 32.2 km/h 97 % 1.02 mm 0.00 W/m2
01:37 9.3 °C 8.8 °C 1012.4 hPa SW 14.5 km/h 35.4 km/h 97 % 0 mm 0.00 W/m2
01:42 9.3 °C 8.8 °C 1012.8 hPa SW 3.2 km/h 25.7 km/h 97 % 0 mm 0.00 W/m2
01:47 9.2 °C 8.8 °C 1012.4 hPa South 22.5 km/h 33.8 km/h 97 % 0 mm 0.00 W/m2
01:52 9.3 °C 8.8 °C 1012.8 hPa South 17.7 km/h 33.8 km/h 97 % 0 mm 0.00 W/m2
01:57 9.3 °C 8.8 °C 1012.4 hPa SW 16.1 km/h 25.7 km/h 97 % 6.35 mm 0.00 W/m2
02:02 9.3 °C 8.8 °C 1012.4 hPa South 19.3 km/h 33.8 km/h 97 % 6.35 mm 0.00 W/m2
02:07 9.2 °C 8.7 °C 1012.8 hPa SSW 4.8 km/h 20.9 km/h 97 % 12.19 mm 0.00 W/m2
02:12 9.2 °C 8.7 °C 1013.1 hPa SW 20.9 km/h 24.1 km/h 97 % 75.69 mm 0.00 W/m2
02:17 9.1 °C 8.6 °C 1013.1 hPa WSW 16.1 km/h 38.6 km/h 97 % 21.08 mm 0.00 W/m2
02:22 8.9 °C 8.3 °C 1013.1 hPa SW 6.4 km/h 27.4 km/h 96 % 5.84 mm 0.00 W/m2
02:27 8.8 °C 8.2 °C 1013.1 hPa SW 11.3 km/h 29 km/h 96 % 2.03 mm 0.00 W/m2
02:32 8.7 °C 8.1 °C 1013.4 hPa West 14.5 km/h 22.5 km/h 96 % 1.52 mm 0.00 W/m2
02:42 8.6 °C 7.9 °C 1013.4 hPa WNW 8 km/h 19.3 km/h 96 % 1.27 mm 0.00 W/m2
02:47 8.4 °C 7.8 °C 1013.1 hPa WSW 19.3 km/h 29 km/h 96 % 0 mm 0.00 W/m2
02:52 8.4 °C 7.8 °C 1013.4 hPa WSW 12.9 km/h 25.7 km/h 96 % 0 mm 0.00 W/m2
02:57 8.3 °C 7.7 °C 1013.4 hPa WSW 16.1 km/h 16.1 km/h 96 % 0 mm 0.00 W/m2
03:02 8.2 °C 7.6 °C 1013.4 hPa WSW 12.9 km/h 22.5 km/h 96 % 0 mm 0.00 W/m2
03:07 8.1 °C 7.4 °C 1013.4 hPa West 1.6 km/h 20.9 km/h 96 % 0 mm 0.00 W/m2
03:12 7.9 °C 7.3 °C 1013.1 hPa WSW 16.1 km/h 16.1 km/h 96 % 0 mm 0.00 W/m2
03:18 7.8 °C 7.2 °C 1013.8 hPa WSW 19.3 km/h 25.7 km/h 96 % 0 mm 0.00 W/m2
03:23 7.7 °C 7.1 °C 1013.8 hPa WSW 16.1 km/h 27.4 km/h 96 % 0 mm 0.00 W/m2
03:28 7.6 °C 6.9 °C 1013.8 hPa WSW 14.5 km/h 19.3 km/h 96 % 0 mm 0.00 W/m2
03:33 7.6 °C 6.9 °C 1013.8 hPa SW 8 km/h 24.1 km/h 96 % 0 mm 0.00 W/m2
03:38 7.6 °C 6.9 °C 1013.8 hPa SW 9.7 km/h 25.7 km/h 96 % 0 mm 0.00 W/m2
03:43 7.6 °C 6.9 °C 1013.8 hPa SW 3.2 km/h 16.1 km/h 96 % 0 mm 0.00 W/m2
03:48 7.6 °C 7 °C 1013.8 hPa SSW 16.1 km/h 20.9 km/h 96 % 1.02 mm 0.00 W/m2
03:53 7.6 °C 6.9 °C 1013.8 hPa West 6.4 km/h 17.7 km/h 96 % 1.52 mm 0.00 W/m2
03:58 7.5 °C 6.9 °C 1013.8 hPa SSW 27.4 km/h 27.4 km/h 96 % 1.52 mm 0.00 W/m2
04:03 7.5 °C 6.9 °C 1013.8 hPa SW 8 km/h 24.1 km/h 96 % 1.52 mm 0.00 W/m2
04:08 7.4 °C 6.8 °C 1013.8 hPa West 9.7 km/h 19.3 km/h 96 % 1.02 mm 0.00 W/m2
04:13 7.4 °C 6.8 °C 1013.8 hPa WSW 4.8 km/h 19.3 km/h 96 % 0 mm 0.00 W/m2
04:18 7.3 °C 6.7 °C 1013.8 hPa SSW 9.7 km/h 24.1 km/h 96 % 0 mm 0.00 W/m2
04:23 7.3 °C 6.7 °C 1014.1 hPa SW 14.5 km/h 29 km/h 96 % 0 mm 0.00 W/m2
04:28 7.2 °C 6.6 °C 1014.1 hPa WSW 16.1 km/h 19.3 km/h 96 % 0 mm 0.00 W/m2
04:33 7.1 °C 6.5 °C 1014.1 hPa SW 14.5 km/h 30.6 km/h 96 % 0 mm 0.00 W/m2
04:38 7.1 °C 6.5 °C 1014.1 hPa WNW 4.8 km/h 19.3 km/h 96 % 0 mm 0.00 W/m2
04:43 7.1 °C 6.4 °C 1014.4 hPa Calm   16.1 km/h 96 % 0 mm 0.00 W/m2
04:48 7.1 °C 6.5 °C 1014.4 hPa WSW 16.1 km/h 17.7 km/h 96 % 0 mm 0.00 W/m2
04:53 7 °C 6.4 °C 1014.4 hPa SW 17.7 km/h 20.9 km/h 96 % 0 mm 0.00 W/m2
04:58 6.9 °C 6.3 °C 1014.4 hPa SSW 4.8 km/h 24.1 km/h 96 % 0 mm 0.00 W/m2
05:03 6.8 °C 6.2 °C 1014.8 hPa West 17.7 km/h 27.4 km/h 96 % 0 mm 0.00 W/m2
05:08 6.8 °C 6.2 °C 1014.8 hPa WSW 12.9 km/h 27.4 km/h 96 % 0 mm 0.00 W/m2
05:13 6.7 °C 6.1 °C 1014.8 hPa Calm   17.7 km/h 96 % 0 mm 0.00 W/m2
05:19 6.7 °C 6.1 °C 1015.1 hPa WSW 9.7 km/h 22.5 km/h 96 % 0 mm 0.00 W/m2
05:24 6.7 °C 6.1 °C 1015.1 hPa WSW 6.4 km/h 19.3 km/h 96 % 0 mm 0.00 W/m2
05:29 6.7 °C 6.1 °C 1015.5 hPa SSW 1.6 km/h 16.1 km/h 96 % 0 mm 0.00 W/m2
05:39 6.7 °C 6.1 °C 1015.5 hPa SW 11.3 km/h 19.3 km/h 96 % 0 mm 0.00 W/m2
05:44 6.6 °C 6 °C 1015.5 hPa SSW 6.4 km/h 14.5 km/h 96 % 0 mm 0.00 W/m2
05:54 6.6 °C 5.9 °C 1015.5 hPa SW 9.7 km/h 16.1 km/h 96 % 0 mm 0.00 W/m2
05:59 6.5 °C 5.9 °C 1015.1 hPa South 3.2 km/h 16.1 km/h 96 % 0 mm 0.00 W/m2
06:04 6.4 °C 5.8 °C 1015.5 hPa South 17.7 km/h 17.7 km/h 96 % 0 mm 0.00 W/m2
06:09 6.4 °C 5.8 °C 1015.5 hPa South 8 km/h 16.1 km/h 96 % 0 mm 0.00 W/m2
06:14 6.3 °C 5.7 °C 1015.1 hPa SSW 8 km/h 17.7 km/h 96 % 0 mm 0.00 W/m2
06:19 6.3 °C 5.7 °C 1015.5 hPa South 9.7 km/h 20.9 km/h 96 % 0 mm 0.00 W/m2
06:24 6.3 °C 5.7 °C 1015.5 hPa South 17.7 km/h 19.3 km/h 96 % 0 mm 0.00 W/m2
06:29 6.3 °C 5.7 °C 1015.5 hPa Calm   8 km/h 96 % 0 mm 0.00 W/m2
06:34 6.3 °C 5.7 °C 1015.8 hPa South 12.9 km/h 19.3 km/h 96 % 0 mm 0.00 W/m2
06:39 6.2 °C 5.6 °C 1015.8 hPa South 8 km/h 17.7 km/h 96 % 0 mm 0.00 W/m2
06:44 6.2 °C 5.6 °C 1015.8 hPa South 17.7 km/h 20.9 km/h 96 % 0 mm 0.00 W/m2
06:49 6.2 °C 5.6 °C 1015.8 hPa Calm   22.5 km/h 96 % 0 mm 0.00 W/m2
06:54 6.2 °C 5.6 °C 1015.8 hPa SSW 9.7 km/h 22.5 km/h 96 % 0 mm 0.00 W/m2
06:59 6.1 °C 5.5 °C 1015.8 hPa SSW 4.8 km/h 16.1 km/h 96 % 0 mm 0.00 W/m2
07:04 6.1 °C 5.4 °C 1015.8 hPa SSW 17.7 km/h 20.9 km/h 96 % 0 mm 0.00 W/m2
07:09 6 °C 5.4 °C 1015.8 hPa South 12.9 km/h 17.7 km/h 96 % 0 mm 0.00 W/m2
07:19 5.9 °C 5.3 °C 1016.1 hPa South 8 km/h 20.9 km/h 96 % 0 mm 0.00 W/m2
07:24 5.9 °C 5.3 °C 1016.1 hPa South 6.4 km/h 17.7 km/h 96 % 0 mm 0.00 W/m2
07:29 5.9 °C 5.3 °C 1016.1 hPa South 8 km/h 16.1 km/h 96 % 0 mm 0.00 W/m2
07:34 5.9 °C 5.3 °C 1016.1 hPa Calm   14.5 km/h 96 % 0 mm 0.00 W/m2
07:39 5.9 °C 5.3 °C 1016.5 hPa South 6.4 km/h 19.3 km/h 96 % 0 mm 0.00 W/m2
07:44 5.9 °C 5.3 °C 1016.8 hPa SSW 8 km/h 12.9 km/h 96 % 0 mm 7.00 W/m2
07:49 5.8 °C 5.2 °C 1016.8 hPa South 9.7 km/h 16.1 km/h 96 % 0 mm 9.00 W/m2
07:54 5.8 °C 5.2 °C 1016.8 hPa South 8 km/h 16.1 km/h 96 % 0 mm 11.00 W/m2
07:59 5.8 °C 5.2 °C 1016.8 hPa SSW 6.4 km/h 19.3 km/h 96 % 0 mm 9.00 W/m2
08:04 5.8 °C 5.2 °C 1016.8 hPa SSE 9.7 km/h 19.3 km/h 96 % 0 mm 14.00 W/m2
08:09 5.8 °C 5.2 °C 1016.8 hPa SE 9.7 km/h 22.5 km/h 96 % 0 mm 12.00 W/m2
08:14 5.8 °C 5.2 °C 1017.2 hPa SSE 11.3 km/h 24.1 km/h 96 % 0 mm 19.00 W/m2
08:19 5.8 °C 5.2 °C 1017.2 hPa South 11.3 km/h 14.5 km/h 96 % 0 mm 21.00 W/m2
08:24 5.8 °C 5.2 °C 1017.5 hPa South 1.6 km/h 11.3 km/h 96 % 0 mm 21.00 W/m2
08:34 5.7 °C 5.1 °C 1017.5 hPa South 6.4 km/h 14.5 km/h 96 % 0 mm 28.00 W/m2
08:39 5.7 °C 5.1 °C 1017.8 hPa South 11.3 km/h 17.7 km/h 96 % 0 mm 18.00 W/m2
08:44 5.7 °C 5.1 °C 1017.8 hPa Calm   20.9 km/h 96 % 0 mm 18.00 W/m2
08:49 5.7 °C 5.1 °C 1017.8 hPa South 11.3 km/h 20.9 km/h 96 % 0 mm 23.00 W/m2
08:54 5.7 °C 5.1 °C 1017.8 hPa SSW 6.4 km/h 17.7 km/h 96 % 0 mm 21.00 W/m2
08:59 5.7 °C 5.1 °C 1018.2 hPa SSW 3.2 km/h 20.9 km/h 96 % 0 mm 25.00 W/m2
09:04 5.8 °C 5.2 °C 1018.2 hPa South 8 km/h 20.9 km/h 96 % 0 mm 26.00 W/m2
09:09 5.7 °C 5.1 °C 1018.2 hPa South 11.3 km/h 19.3 km/h 96 % 0 mm 25.00 W/m2
09:14 5.7 °C 5.1 °C 1018.2 hPa South 12.9 km/h 24.1 km/h 96 % 0 mm 23.00 W/m2
09:19 5.7 °C 5.1 °C 1018.2 hPa SSE 20.9 km/h 20.9 km/h 96 % 0 mm 42.00 W/m2
09:24 5.7 °C 5.1 °C 1018.5 hPa South 16.1 km/h 20.9 km/h 96 % 0 mm 35.00 W/m2
09:29 5.7 °C 5.1 °C 1018.5 hPa SSW 16.1 km/h 27.4 km/h 96 % 0 mm 62.00 W/m2
09:34 5.6 °C 5 °C 1018.8 hPa South 11.3 km/h 29 km/h 96 % 0 mm 62.00 W/m2
09:39 5.6 °C 5 °C 1018.8 hPa South 17.7 km/h 22.5 km/h 96 % 0 mm 62.00 W/m2
09:44 5.6 °C 4.9 °C 1018.8 hPa Calm   19.3 km/h 96 % 0 mm 40.00 W/m2
09:49 5.6 °C 4.9 °C 1018.8 hPa SSW 12.9 km/h 20.9 km/h 96 % 0 mm 37.00 W/m2
09:54 5.6 °C 4.9 °C 1018.8 hPa SSW 4.8 km/h 27.4 km/h 96 % 0 mm 88.00 W/m2
09:59 5.6 °C 4.9 °C 1019.2 hPa SSW 3.2 km/h 17.7 km/h 96 % 0 mm 72.00 W/m2
10:04 5.5 °C 4.9 °C 1019.2 hPa SSW 11.3 km/h 24.1 km/h 96 % 0 mm 56.00 W/m2
10:14 5.4 °C 4.9 °C 1019.2 hPa Calm   24.1 km/h 96 % 0 mm 98.00 W/m2
10:19 5.4 °C 4.9 °C 1019.5 hPa SSW 17.7 km/h 20.9 km/h 96 % 0 mm 93.00 W/m2
10:24 5.4 °C 4.9 °C 1019.2 hPa South 12.9 km/h 14.5 km/h 96 % 0 mm 72.00 W/m2
10:29 5.4 °C 4.9 °C 1019.2 hPa SSE 11.3 km/h 20.9 km/h 96 % 0 mm 95.00 W/m2
10:35 5.4 °C 4.8 °C 1019.5 hPa Calm   17.7 km/h 96 % 0 mm 79.00 W/m2
10:40 5.4 °C 4.8 °C 1019.2 hPa SSE 3.2 km/h 19.3 km/h 96 % 0 mm 105.00 W/m2
10:45 5.3 °C 4.7 °C 1019.5 hPa SSW 17.7 km/h 27.4 km/h 96 % 0 mm 104.00 W/m2
10:50 5.3 °C 4.7 °C 1019.5 hPa SSW 4.8 km/h 22.5 km/h 96 % 0 mm 118.00 W/m2
10:55 5.3 °C 4.7 °C 1019.5 hPa SSE 12.9 km/h 20.9 km/h 96 % 0 mm 120.00 W/m2
11:00 5.3 °C 4.7 °C 1019.9 hPa South 12.9 km/h 16.1 km/h 96 % 0 mm 107.00 W/m2
11:05 5.3 °C 4.7 °C 1019.9 hPa SSE 17.7 km/h 19.3 km/h 96 % 0 mm 100.00 W/m2
11:10 5.3 °C 4.7 °C 1019.5 hPa South 14.5 km/h 20.9 km/h 96 % 0 mm 105.00 W/m2
11:15 5.3 °C 4.7 °C 1019.5 hPa SSE 12.9 km/h 20.9 km/h 96 % 0 mm 121.00 W/m2
11:20 5.3 °C 4.7 °C 1019.5 hPa South 1.6 km/h 16.1 km/h 96 % 0 mm 113.00 W/m2
11:25 5.3 °C 4.7 °C 1019.5 hPa SSE 11.3 km/h 17.7 km/h 96 % 0 mm 109.00 W/m2
11:30 5.3 °C 4.7 °C 1019.5 hPa SSE 14.5 km/h 20.9 km/h 96 % 0 mm 132.00 W/m2
11:35 5.3 °C 4.7 °C 1019.5 hPa South 17.7 km/h 19.3 km/h 96 % 0 mm 120.00 W/m2
11:40 5.3 °C 4.7 °C 1019.5 hPa Calm   14.5 km/h 96 % 0 mm 69.00 W/m2
11:45 5.3 °C 4.7 °C 1019.2 hPa South 11.3 km/h 17.7 km/h 96 % 0 mm 100.00 W/m2
11:50 5.3 °C 4.7 °C 1019.2 hPa Calm   17.7 km/h 96 % 0 mm 98.00 W/m2
11:55 5.3 °C 4.7 °C 1018.8 hPa SE 14.5 km/h 20.9 km/h 96 % 0 mm 90.00 W/m2
12:00 5.3 °C 4.7 °C 1018.8 hPa Calm   16.1 km/h 96 % 0 mm 114.00 W/m2
12:05 5.3 °C 4.7 °C 1018.5 hPa SSE 6.4 km/h 17.7 km/h 96 % 0 mm 114.00 W/m2
12:10 5.3 °C 4.7 °C 1018.5 hPa SSE 8 km/h 19.3 km/h 96 % 0 mm 72.00 W/m2
12:15 5.4 °C 4.8 °C 1018.5 hPa South 11.3 km/h 17.7 km/h 96 % 0 mm 83.00 W/m2
12:20 5.4 °C 4.9 °C 1018.2 hPa SSE 8 km/h 16.1 km/h 96 % 0 mm 102.00 W/m2
12:25 5.4 °C 4.9 °C 1018.2 hPa Calm   12.9 km/h 96 % 0 mm 91.00 W/m2
12:30 5.4 °C 4.9 °C 1017.8 hPa South 8 km/h 19.3 km/h 96 % 0 mm 65.00 W/m2
12:35 5.4 °C 4.9 °C 1017.8 hPa South 11.3 km/h 16.1 km/h 96 % 0 mm 65.00 W/m2
12:40 5.5 °C 4.9 °C 1017.8 hPa SSW 8 km/h 16.1 km/h 96 % 0 mm 65.00 W/m2
12:45 5.5 °C 4.9 °C 1017.8 hPa South 4.8 km/h 16.1 km/h 96 % 0 mm 128.00 W/m2
12:50 5.4 °C 4.9 °C 1017.8 hPa South 6.4 km/h 11.3 km/h 96 % 0 mm 91.00 W/m2
12:55 5.5 °C 4.9 °C 1017.5 hPa South 11.3 km/h 22.5 km/h 96 % 0 mm 102.00 W/m2
13:00 5.5 °C 4.9 °C 1017.5 hPa South 9.7 km/h 20.9 km/h 96 % 0 mm 128.00 W/m2
13:05 5.6 °C 4.9 °C 1017.8 hPa South 9.7 km/h 17.7 km/h 96 % 0 mm 93.00 W/m2
13:10 5.6 °C 4.9 °C 1017.5 hPa Calm   14.5 km/h 96 % 0 mm 137.00 W/m2
13:15 5.6 °C 4.9 °C 1017.2 hPa South 11.3 km/h 16.1 km/h 96 % 0 mm 158.00 W/m2
13:20 5.7 °C 5.1 °C 1017.2 hPa South 14.5 km/h 16.1 km/h 96 % 0 mm 142.00 W/m2
13:25 5.7 °C 5.1 °C 1017.5 hPa South 6.4 km/h 19.3 km/h 96 % 0 mm 206.00 W/m2
13:30 5.8 °C 5.2 °C 1017.2 hPa SSE 6.4 km/h 19.3 km/h 96 % 0 mm 156.00 W/m2
13:35 5.8 °C 5.2 °C 1016.8 hPa SSW 8 km/h 20.9 km/h 96 % 0 mm 162.00 W/m2
13:40 5.8 °C 5.2 °C 1017.2 hPa South 17.7 km/h 22.5 km/h 96 % 0 mm 146.00 W/m2
13:45 5.9 °C 5.3 °C 1017.5 hPa South 16.1 km/h 25.7 km/h 96 % 0 mm 128.00 W/m2
13:50 5.9 °C 5.3 °C 1017.5 hPa SSW 6.4 km/h 19.3 km/h 96 % 0 mm 153.00 W/m2
13:55 5.9 °C 5.3 °C 1017.5 hPa SSW 8 km/h 27.4 km/h 96 % 0 mm 93.00 W/m2
14:01 5.8 °C 5.2 °C 1017.5 hPa SSE 14.5 km/h 27.4 km/h 96 % 0 mm 111.00 W/m2
14:05 5.8 °C 5.2 °C 1017.5 hPa SSW 6.4 km/h 20.9 km/h 96 % 0 mm 69.00 W/m2
14:11 5.7 °C 5.1 °C 1017.2 hPa SSW 17.7 km/h 29 km/h 96 % 0 mm 44.00 W/m2
14:16 5.6 °C 5 °C 1017.2 hPa SSW 24.1 km/h 24.1 km/h 96 % 0 mm 46.00 W/m2
14:21 5.6 °C 5 °C 1017.2 hPa South 19.3 km/h 25.7 km/h 96 % 0 mm 18.00 W/m2
14:26 5.6 °C 5 °C 1017.2 hPa South 16.1 km/h 22.5 km/h 96 % 0 mm 25.00 W/m2
14:31 5.6 °C 4.9 °C 1017.5 hPa South 19.3 km/h 24.1 km/h 96 % 0 mm 12.00 W/m2
14:36 5.6 °C 4.9 °C 1017.5 hPa SSW 24.1 km/h 32.2 km/h 96 % 0 mm 32.00 W/m2
14:41 5.6 °C 4.9 °C 1017.5 hPa SW 4.8 km/h 22.5 km/h 96 % 0 mm 44.00 W/m2
14:46 5.6 °C 4.9 °C 1017.2 hPa South 8 km/h 38.6 km/h 96 % 0 mm 65.00 W/m2
14:51 5.6 °C 4.9 °C 1016.8 hPa SSW 17.7 km/h 32.2 km/h 96 % 0 mm 63.00 W/m2
14:56 5.6 °C 4.9 °C 1016.5 hPa SW 11.3 km/h 29 km/h 96 % 0 mm 63.00 W/m2
15:01 5.6 °C 4.9 °C 1016.8 hPa South 12.9 km/h 38.6 km/h 96 % 0 mm 60.00 W/m2
15:06 5.6 °C 5 °C 1017.2 hPa SSE 25.7 km/h 37 km/h 96 % 0 mm 79.00 W/m2
15:11 5.6 °C 5 °C 1017.5 hPa South 17.7 km/h 33.8 km/h 96 % 0 mm 51.00 W/m2
15:16 5.6 °C 5 °C 1017.5 hPa South 9.7 km/h 29 km/h 96 % 0 mm 28.00 W/m2
15:21 5.7 °C 5.1 °C 1017.5 hPa South 11.3 km/h 32.2 km/h 96 % 0 mm 37.00 W/m2
15:26 5.7 °C 5.1 °C 1017.2 hPa SSE 14.5 km/h 32.2 km/h 96 % 0 mm 42.00 W/m2
15:31 5.7 °C 5.1 °C 1017.2 hPa South 14.5 km/h 33.8 km/h 96 % 0 mm 21.00 W/m2
15:36 5.7 °C 5.1 °C 1017.2 hPa South 14.5 km/h 25.7 km/h 96 % 0 mm 7.00 W/m2
15:41 5.8 °C 5.2 °C 1017.5 hPa South 11.3 km/h 30.6 km/h 96 % 0 mm 16.00 W/m2
15:46 5.8 °C 5.2 °C 1017.5 hPa SSW 4.8 km/h 27.4 km/h 96 % 0 mm 25.00 W/m2
15:51 5.8 °C 5.2 °C 1017.8 hPa South 24.1 km/h 27.4 km/h 96 % 0 mm 14.00 W/m2
15:56 5.9 °C 5.3 °C 1017.8 hPa SSE 6.4 km/h 35.4 km/h 96 % 0 mm 7.00 W/m2
16:01 5.9 °C 5.3 °C 1017.8 hPa SSE 6.4 km/h 27.4 km/h 96 % 0 mm 7.00 W/m2
16:06 5.9 °C 5.3 °C 1017.8 hPa South 9.7 km/h 20.9 km/h 96 % 0 mm 11.00 W/m2
16:11 5.9 °C 5.3 °C 1017.5 hPa SSW 16.1 km/h 27.4 km/h 96 % 0 mm 12.00 W/m2
16:16 5.9 °C 5.3 °C 1017.2 hPa SSW 4.8 km/h 32.2 km/h 96 % 0 mm 5.00 W/m2
16:21 5.9 °C 5.3 °C 1017.5 hPa SSW 27.4 km/h 33.8 km/h 96 % 0 mm 7.00 W/m2
16:26 5.9 °C 5.3 °C 1017.5 hPa South 11.3 km/h 29 km/h 96 % 0 mm 0.00 W/m2
16:31 6 °C 5.4 °C 1017.5 hPa South 11.3 km/h 40.2 km/h 96 % 0 mm 7.00 W/m2
16:36 6 °C 5.4 °C 1017.5 hPa SSW 27.4 km/h 32.2 km/h 96 % 0 mm 0.00 W/m2
16:41 6 °C 5.4 °C 1017.5 hPa South 22.5 km/h 48.3 km/h 96 % 0 mm 0.00 W/m2
16:46 5.9 °C 5.3 °C 1017.5 hPa SE 17.7 km/h 40.2 km/h 96 % 1.02 mm 0.00 W/m2
16:51 5.9 °C 5.3 °C 1017.8 hPa SW 29 km/h 43.5 km/h 96 % 1.02 mm 0.00 W/m2
16:56 5.9 °C 5.3 °C 1017.5 hPa South 12.9 km/h 32.2 km/h 96 % 1.02 mm 0.00 W/m2
17:01 6 °C 5.4 °C 1017.5 hPa SSW 32.2 km/h 35.4 km/h 96 % 1.02 mm 0.00 W/m2
17:06 6 °C 5.4 °C 1017.5 hPa SW 8 km/h 38.6 km/h 96 % 0 mm 0.00 W/m2
17:11 5.9 °C 5.3 °C 1017.8 hPa SW 25.7 km/h 33.8 km/h 96 % 0 mm 0.00 W/m2
17:16 5.8 °C 5.2 °C 1017.5 hPa South 8 km/h 11.3 km/h 96 % 0 mm 0.00 W/m2
17:26 5.6 °C 4.9 °C 1017.5 hPa Calm     96 % 6.35 mm 0.00 W/m2
17:31 5.6 °C 4.9 °C 1017.5 hPa SSW 17.7 km/h 22.5 km/h 96 % 6.35 mm 0.00 W/m2
17:36 5.6 °C 4.9 °C 1017.5 hPa Calm   6.4 km/h 96 % 2.54 mm 0.00 W/m2
17:41 5.7 °C 5.1 °C 1017.2 hPa South 17.7 km/h 30.6 km/h 96 % 4.06 mm 0.00 W/m2
17:46 5.7 °C 5.1 °C 1017.5 hPa SSE 16.1 km/h 19.3 km/h 96 % 1.78 mm 0.00 W/m2
17:51 5.8 °C 5.2 °C 1017.2 hPa SE 12.9 km/h 19.3 km/h 96 % 1.02 mm 0.00 W/m2
17:56 5.9 °C 5.3 °C 1017.5 hPa South 29 km/h 29 km/h 96 % 1.02 mm 0.00 W/m2
18:01 6 °C 5.4 °C 1017.5 hPa South 14.5 km/h 17.7 km/h 96 % 1.02 mm 0.00 W/m2
18:06 6 °C 5.4 °C 1017.5 hPa SSW 11.3 km/h 20.9 km/h 96 % 1.02 mm 0.00 W/m2
18:11 6 °C 5.4 °C 1017.5 hPa SSW 20.9 km/h 25.7 km/h 96 % 0 mm 0.00 W/m2
18:16 6 °C 5.4 °C 1017.5 hPa SSE 12.9 km/h 22.5 km/h 96 % 0 mm 0.00 W/m2
18:21 6 °C 5.4 °C 1017.2 hPa SW 6.4 km/h 17.7 km/h 96 % 1.52 mm 0.00 W/m2
18:26 6 °C 5.4 °C 1017.2 hPa SW 4.8 km/h 25.7 km/h 96 % 5.33 mm 0.00 W/m2
18:31 6 °C 5.4 °C 1017.5 hPa SSW 8 km/h 17.7 km/h 96 % 2.03 mm 0.00 W/m2
18:36 6 °C 5.4 °C 1017.5 hPa SSW 12.9 km/h 20.9 km/h 96 % 1.27 mm 0.00 W/m2
18:41 5.9 °C 5.3 °C 1017.2 hPa SSE 19.3 km/h 19.3 km/h 96 % 1.02 mm 0.00 W/m2
18:46 5.9 °C 5.3 °C 1017.2 hPa South 24.1 km/h 24.1 km/h 96 % 1.02 mm 0.00 W/m2
18:51 5.9 °C 5.3 °C 1017.2 hPa SSE 3.2 km/h 19.3 km/h 96 % 1.27 mm 0.00 W/m2
18:56 5.9 °C 5.3 °C 1017.2 hPa SW 12.9 km/h 37 km/h 96 % 3.56 mm 0.00 W/m2
19:01 5.8 °C 5.2 °C 1017.2 hPa SSE 9.7 km/h 20.9 km/h 96 % 3.56 mm 0.00 W/m2
19:06 5.8 °C 5.2 °C 1017.2 hPa South 9.7 km/h 32.2 km/h 96 % 3.81 mm 0.00 W/m2
19:16 5.7 °C 5.1 °C 1017.8 hPa SW 30.6 km/h 30.6 km/h 96 % 1.52 mm 0.00 W/m2
19:21 5.7 °C 5.1 °C 1017.8 hPa SW 12.9 km/h 29 km/h 96 % 1.27 mm 0.00 W/m2
19:26 5.6 °C 5 °C 1017.5 hPa South 20.9 km/h 27.4 km/h 96 % 2.03 mm 0.00 W/m2
19:31 5.6 °C 4.9 °C 1017.5 hPa SSE 19.3 km/h 22.5 km/h 96 % 2.03 mm 0.00 W/m2
19:37 5.6 °C 4.9 °C 1017.5 hPa Calm   11.3 km/h 96 % 1.52 mm 0.00 W/m2
19:42 5.6 °C 4.9 °C 1017.5 hPa SSW 12.9 km/h 17.7 km/h 96 % 7.62 mm 0.00 W/m2
19:47 5.6 °C 4.9 °C 1017.5 hPa South 19.3 km/h 20.9 km/h 96 % 4.57 mm 0.00 W/m2
19:52 5.6 °C 5 °C 1017.5 hPa SSW 17.7 km/h 29 km/h 96 % 4.57 mm 0.00 W/m2
20:02 5.7 °C 5.1 °C 1017.8 hPa SSW 19.3 km/h 32.2 km/h 96 % 1.27 mm 0.00 W/m2
20:07 5.7 °C 5.1 °C 1017.8 hPa SW 20.9 km/h 20.9 km/h 96 % 1.02 mm 0.00 W/m2
20:12 5.7 °C 5.1 °C 1017.8 hPa WSW 22.5 km/h 32.2 km/h 96 % 0 mm 0.00 W/m2
20:17 5.7 °C 5.1 °C 1017.8 hPa WSW 14.5 km/h 32.2 km/h 96 % 3.05 mm 0.00 W/m2
20:22 5.6 °C 5 °C 1017.8 hPa South 22.5 km/h 22.5 km/h 96 % 2.29 mm 0.00 W/m2
20:27 5.6 °C 4.9 °C 1017.8 hPa SW 40.2 km/h 43.5 km/h 96 % 1.52 mm 0.00 W/m2
20:32 5.5 °C 4.9 °C 1017.5 hPa South 12.9 km/h 30.6 km/h 96 % 1.52 mm 0.00 W/m2
20:37 5.5 °C 4.9 °C 1017.5 hPa SSW 6.4 km/h 32.2 km/h 96 % 1.27 mm 0.00 W/m2
20:42 5.5 °C 4.9 °C 1017.5 hPa SSW 29 km/h 37 km/h 96 % 0 mm 0.00 W/m2
20:47 5.5 °C 4.9 °C 1017.5 hPa SSW 22.5 km/h 37 km/h 96 % 0 mm 0.00 W/m2
20:52 5.6 °C 4.9 °C 1017.5 hPa South 8 km/h 24.1 km/h 96 % 0 mm 0.00 W/m2
20:57 5.6 °C 5 °C 1017.2 hPa SSW 14.5 km/h 30.6 km/h 96 % 0 mm 0.00 W/m2
21:02 5.7 °C 5.1 °C 1017.5 hPa SSW 20.9 km/h 24.1 km/h 96 % 0 mm 0.00 W/m2
21:07 5.7 °C 5.1 °C 1017.5 hPa SSW 35.4 km/h 40.2 km/h 96 % 0 mm 0.00 W/m2
21:12 5.7 °C 5.1 °C 1017.5 hPa SW 11.3 km/h 33.8 km/h 96 % 0 mm 0.00 W/m2
21:17 5.7 °C 5.1 °C 1017.8 hPa SSW 38.6 km/h 38.6 km/h 96 % 0 mm 0.00 W/m2
21:22 5.7 °C 5.1 °C 1017.8 hPa South 17.7 km/h 20.9 km/h 96 % 0 mm 0.00 W/m2
21:32 5.6 °C 5 °C 1017.8 hPa SSE 32.2 km/h 33.8 km/h 96 % 0 mm 0.00 W/m2
21:37 5.6 °C 5 °C 1017.8 hPa South 12.9 km/h 29 km/h 96 % 0 mm 0.00 W/m2
21:42 5.7 °C 5.1 °C 1017.8 hPa SSW 16.1 km/h 29 km/h 96 % 0 mm 0.00 W/m2
21:47 5.7 °C 5.1 °C 1017.8 hPa SW 32.2 km/h 35.4 km/h 96 % 0 mm 0.00 W/m2
21:57 5.8 °C 5.2 °C 1017.5 hPa SSW 32.2 km/h 38.6 km/h 96 % 0 mm 0.00 W/m2
22:02 5.8 °C 5.2 °C 1017.5 hPa SSW 8 km/h 25.7 km/h 96 % 0 mm 0.00 W/m2
22:07 5.8 °C 5.2 °C 1017.8 hPa South 19.3 km/h 24.1 km/h 96 % 0 mm 0.00 W/m2
22:12 5.9 °C 5.3 °C 1017.8 hPa SSW 17.7 km/h 32.2 km/h 96 % 0 mm 0.00 W/m2
22:17 5.9 °C 5.3 °C 1017.8 hPa South 32.2 km/h 38.6 km/h 96 % 0 mm 0.00 W/m2
22:22 5.9 °C 5.3 °C 1017.8 hPa SSW 20.9 km/h 20.9 km/h 96 % 0 mm 0.00 W/m2
22:27 5.9 °C 5.3 °C 1017.8 hPa SSW 14.5 km/h 30.6 km/h 96 % 0 mm 0.00 W/m2
22:32 6 °C 5.4 °C 1017.8 hPa SSW 4.8 km/h 27.4 km/h 96 % 0 mm 0.00 W/m2
22:37 6 °C 5.4 °C 1017.8 hPa SW 17.7 km/h 35.4 km/h 96 % 1.02 mm 0.00 W/m2
22:42 6.1 °C 5.4 °C 1017.8 hPa SW 41.8 km/h 43.5 km/h 96 % 1.02 mm 0.00 W/m2
22:47 6.1 °C 5.4 °C 1017.8 hPa Calm   30.6 km/h 96 % 1.02 mm 0.00 W/m2
22:52 6.1 °C 5.4 °C 1017.8 hPa SSW 19.3 km/h 32.2 km/h 96 % 4.06 mm 0.00 W/m2
22:57 6.1 °C 5.5 °C 1017.8 hPa South 17.7 km/h 37 km/h 96 % 11.68 mm 0.00 W/m2
23:02 6.1 °C 5.5 °C 1017.8 hPa South 20.9 km/h 46.7 km/h 96 % 3.3 mm 0.00 W/m2
23:07 6.1 °C 5.4 °C 1017.8 hPa SE 24.1 km/h 38.6 km/h 96 % 3.05 mm 0.00 W/m2
23:17 6.1 °C 5.5 °C 1017.8 hPa South 24.1 km/h 24.1 km/h 96 % 3.05 mm 0.00 W/m2
23:22 6.1 °C 5.5 °C 1017.8 hPa SW 17.7 km/h 20.9 km/h 96 % 3.56 mm 0.00 W/m2
23:27 6.1 °C 5.5 °C 1017.8 hPa SW 16.1 km/h 24.1 km/h 96 % 4.32 mm 0.00 W/m2
23:32 6.1 °C 5.5 °C 1017.8 hPa South 11.3 km/h 30.6 km/h 96 % 3.81 mm 0.00 W/m2
23:37 6.1 °C 5.5 °C 1017.5 hPa SSE 11.3 km/h 27.4 km/h 96 % 4.06 mm 0.00 W/m2
23:43 6.2 °C 5.6 °C 1017.8 hPa SSE 3.2 km/h 22.5 km/h 96 % 4.32 mm 0.00 W/m2
23:48 6.1 °C 5.5 °C 1017.5 hPa SW 1.6 km/h 17.7 km/h 96 % 6.35 mm 0.00 W/m2
23:53 6.1 °C 5.5 °C 1017.8 hPa SW 24.1 km/h 38.6 km/h 96 % 5.84 mm 0.00 W/m2
23:58 6.2 °C 5.6 °C 1017.8 hPa SE 27.4 km/h 41.8 km/h 96 % 4.83 mm 0.00 W/m2
Juneau County Weather
Compliments of Weather Underground - 4.5 mb
 WU-history PHP script courtesy of   Juneau County Weather.
powered by Cumulus v1.9.3 (1059)
Ambient Weather VWS v14.00
Top Contact Website Map Copyright © 2007 - 2018 Foresthillweather.com Never base important decisions on this or any weather information obtained from the Internet